• Join FlightAware (Why Join?)
  • Login
  • US Flag 
05:49PM EDT


 

Airport Tracker/Info


-or-


 

Live Flight TrackerFlight Track Log ✈ FDX1562 ✈ 10-May-2013 ✈ KMEM - KHTS

Flight Track Log - Related Links

Times and Time Zones

All times are in EDT time to prevent confusion due to time zone crossing. See the FDX1562 flight status page for this flight to view local times or setup timezone preferences in your user account.

Time Position Orientation Groundspeed Altitude Reporting Facility
EDT Latitude Longitude Course Direction KTS MPH feet Rate Location/Type
04:38AM 35.0167 -89.9667 90° East 164 189 1,400  Level KMEM
04:38AM 35.0167 -89.9333 90° East 186 214 3,100 2,880 Climbing KMEM
04:39AM 35.0333 -89.8500 76° East 295 339 6,300 3,240 Climbing KMEM
04:40AM 35.0667 -89.7667 64° Northeast 302 348 9,600 2,820 Climbing KMEM
04:41AM 35.0867 -89.6744 75° East 358 412 11,400 1,860 Climbing Memphis Center
04:42AM 35.1275 -89.5294 71° East 385 443 13,200 1,980 Climbing Memphis Center
04:43AM 35.1683 -89.3892 70° East 425 489 15,400 2,340 Climbing Memphis Center
04:44AM 35.2089 -89.2492 70° East 432 497 17,900 2,340 Climbing Memphis Center
04:45AM 35.2597 -89.1008 67° East 453 521 20,100 2,700 Climbing Memphis Center
04:46AM 35.3333 -88.9622 57° Northeast 465 535 23,400 2,100 Climbing Memphis Center
04:52AM 35.7920 -88.0660 57° Northeast 521 600 35,400 1,920 Climbing FlightAware
04:53AM 35.8470 -87.9560 58° Northeast 540 621 36,500 1,200 Climbing FlightAware
04:54AM 35.9010 -87.8510 58° Northeast 547 629 37,000 360 Climbing FlightAware
04:54AM 35.9550 -87.7420 59° Northeast 552 635 37,000  Level FlightAware
04:55AM 36.0170 -87.6210 58° Northeast 558 642 37,000  Level FlightAware
04:56AM 36.0770 -87.5010 58° Northeast 558 642 37,000  Level FlightAware
04:57AM 36.1300 -87.3930 59° Northeast 556 640 37,000  Level FlightAware
04:57AM 36.1920 -87.2660 59° Northeast 549 632 37,000 300 Level FlightAware
04:58AM 36.2460 -87.1590 58° Northeast 549 632 37,500 780 Climbing FlightAware
04:59AM 36.2990 -87.0520 58° Northeast 553 636 38,100 720 Climbing FlightAware
04:59AM 36.3570 -86.9340 59° Northeast 562 647 38,600 600 Climbing FlightAware
05:00AM 36.4130 -86.8200 59° Northeast 569 655 39,000 300 Climbing FlightAware
05:01AM 36.4680 -86.7080 59° Northeast 576 663 39,000  Level FlightAware
05:01AM 36.5290 -86.5800 59° Northeast 577 664 39,000  Level FlightAware
05:02AM 36.5850 -86.4670 58° Northeast 575 662 39,000  Level FlightAware
05:03AM 36.6270 -86.3790 59° Northeast 575 662 39,000  Level FlightAware
05:04AM 36.7061 -86.2145 59° Northeast 574 661 39,000  Level FlightAware ADS-B
05:04AM 36.7491 -86.1266 59° Northeast 573 659 39,000  Level FlightAware ADS-B
05:05AM 36.7910 -86.0392 59° Northeast 571 657 39,000  Level FlightAware ADS-B
05:05AM 36.8330 -85.9517 59° Northeast 570 656 39,000  Level FlightAware ADS-B
05:06AM 36.8756 -85.8611 60° Northeast 568 654 39,000  Level FlightAware ADS-B
05:06AM 36.9260 -85.7540 59° Northeast 568 654 39,000  Level FlightAware
05:07AM 36.9730 -85.6560 59° Northeast 566 651 39,000  Level FlightAware
05:08AM 37.0362 -85.5234 59° Northeast 565 650 39,000  Level FlightAware ADS-B
05:08AM 37.0800 -85.4278 60° Northeast 563 648 39,000  Level FlightAware ADS-B
05:09AM 37.1195 -85.3436 60° Northeast 562 647 39,000  Level FlightAware ADS-B
05:09AM 37.1624 -85.2538 59° Northeast 562 647 39,000  Level FlightAware ADS-B
05:10AM 37.2020 -85.1670 60° Northeast 560 644 39,000  Level FlightAware ADS-B
05:10AM 37.2413 -85.0829 60° Northeast 558 642 39,000  Level FlightAware ADS-B
05:11AM 37.2824 -84.9960 59° Northeast 558 642 39,000  Level FlightAware ADS-B
05:11AM 37.3294 -84.8926 60° Northeast 558 642 39,000  Level FlightAware ADS-B
05:12AM 37.3690 -84.8080 59° Northeast 558 642 39,000 -360 Level FlightAware
05:13AM 37.4162 -84.7051 60° Northeast 558 642 38,600 -1,080 Descending FlightAware ADS-B
05:13AM 37.4585 -84.6128 60° Northeast 541 623 37,800 -360 Descending FlightAware ADS-B
05:14AM 37.5150 -84.4900 60° Northeast 536 617 38,100 -1,860 Climbing FlightAware
05:14AM 37.5488 -84.4139 61° Northeast 527 606 35,500 -4,320 Descending FlightAware ADS-B
05:15AM 37.5864 -84.3302 60° Northeast 516 594 34,500 -2,100 Descending FlightAware ADS-B
05:15AM 37.6230 -84.2521 59° Northeast 513 590 33,300 -1,560 Descending FlightAware ADS-B
05:16AM 37.6880 -84.1070 60° Northeast 507 583 32,200 -720 Descending FlightAware
05:17AM 37.7270 -84.0200 60° Northeast 507 583 32,200  Level FlightAware
05:18AM 37.7670 -83.9330 60° Northeast 507 583 32,200  Level FlightAware
05:18AM 37.8070 -83.8450 60° Northeast 507 583 32,200  Level FlightAware
05:19AM 37.8570 -83.7360 60° Northeast 507 583 32,200  Level FlightAware
05:20AM 37.8970 -83.6490 60° Northeast 507 583 32,200  Level FlightAware
05:21AM 37.9370 -83.5610 60° Northeast 507 583 32,200  Level FlightAware
05:21AM 37.9770 -83.4730 60° Northeast 507 583 32,200  Level FlightAware
05:22AM 38.0160 -83.3860 60° Northeast 507 583 32,200  Level FlightAware
05:23AM 38.0660 -83.2760 60° Northeast 507 583 32,200  Level FlightAware
05:23AM 38.1060 -83.1880 60° Northeast 507 583 32,200  Level FlightAware
05:24AM 38.1460 -83.1010 60° Northeast 507 583 32,200  Level FlightAware
05:25AM 38.1860 -83.0130 60° Northeast 507 583 32,200  Level FlightAware
05:25AM 38.2260 -82.9250 60° Northeast 507 583 32,200 -15,720 Level FlightAware
05:26AM 38.2111 -82.8172 60° Northeast 292 336 7,400 -14,160 Descending Indianapolis Center
05:27AM 38.2250 -82.7064 81° East 277 319 4,900 -1,800 Descending Indianapolis Center
05:28AM 38.2344 -82.6108 83° East 273 314 3,800 -900 Descending Indianapolis Center
05:29AM 38.2386 -82.5289 86° East 248 285 3,200 -300 Descending Indianapolis Center
05:30AM 38.2219 -82.4669 109° East 223 257 3,200  Level Indianapolis Center
05:31AM 38.2164 -82.3953 96° East 218 251 3,200 -60 Level Indianapolis Center
05:32AM 38.2658 -82.3633 27° Northeast 204 235 3,100 -180 Descending Indianapolis Center
05:33AM 38.3092 -82.3925 332° Northwest 182 209 2,900 -240 Descending Indianapolis Center
05:34AM 38.3289 -82.4372 299° West 155 178 2,700 -420 Descending Indianapolis Center
05:35AM 38.3406 -82.4744 292° West 126 145 2,100 -660 Descending Indianapolis Center
05:36AM 38.3544 -82.5164 293° West 115 132 1,400 -480 Descending Indianapolis Center
05:37AM 38.3664 -82.5586 290° West 115 132 1,200 -240 Descending Indianapolis Center